Time;durP1;ratioP1;P1;durP2;ratioP2;P2;SDS_P1;SDS_P2;PMS_P1;PMS_P2;Temp;Humidity;BMP_temperature;BMP_pressure;BME280_temperature;BME280_humidity;BME280_pressure;Samples;Min_cycle;Max_cycle;Signal;HPM_P1;HPM_P2
2021/09/27 00:01:45;;;;;;;9.93;8.93;;;13.20;99.90;;;;;;6229288;28;20232;-72
2021/09/27 00:04:47;;;;;;;10.30;9.37;;;13.20;99.90;;;;;;6232622;28;20274;-73
2021/09/27 00:07:50;;;;;;;10.50;9.47;;;13.20;99.90;;;;;;6222092;28;20199;-73
2021/09/27 00:10:56;;;;;;;10.53;9.50;;;13.10;99.90;;;;;;6220463;28;20217;-73
2021/09/27 00:14:02;;;;;;;9.60;8.73;;;13.00;99.90;;;;;;6220988;28;20185;-72
2021/09/27 00:17:07;;;;;;;10.43;9.43;;;13.00;99.90;;;;;;6220669;28;20680;-73
2021/09/27 00:20:10;;;;;;;10.77;9.70;;;13.00;99.90;;;;;;6222111;28;20216;-72
2021/09/27 00:23:14;;;;;;;9.80;8.80;;;13.00;99.90;;;;;;6220266;28;20200;-73
2021/09/27 00:26:18;;;;;;;11.73;10.20;;;13.00;99.90;;;;;;6220462;28;20195;-73
2021/09/27 00:29:20;;;;;;;10.93;9.93;;;12.90;99.90;;;;;;6220280;28;20231;-73
2021/09/27 00:32:23;;;;;;;11.00;9.90;;;12.90;99.90;;;;;;6221464;28;20191;-72
2021/09/27 00:35:29;;;;;;;15.93;12.40;;;12.90;99.90;;;;;;6220098;28;20202;-73
2021/09/27 00:38:32;;;;;;;12.13;10.97;;;12.80;99.90;;;;;;6237014;28;20216;-73
2021/09/27 00:41:36;;;;;;;15.10;12.63;;;12.80;99.90;;;;;;6221401;28;20507;-72
2021/09/27 00:44:38;;;;;;;12.17;10.90;;;12.80;99.90;;;;;;6221374;28;20201;-73
2021/09/27 00:47:40;;;;;;;12.07;10.40;;;12.80;99.90;;;;;;6221387;28;20192;-72
2021/09/27 00:50:48;;;;;;;14.13;12.53;;;12.80;99.90;;;;;;6219920;28;20220;-73
2021/09/27 00:54:03;;;;;;;14.53;13.10;;;12.70;99.90;;;;;;6221222;28;20559;-73
2021/09/27 00:57:22;;;;;;;14.17;11.70;;;12.80;99.90;;;;;;6196137;28;20181;-72
2021/09/27 01:00:27;;;;;;;13.30;11.90;;;12.70;99.90;;;;;;6219961;28;20646;-73
2021/09/27 01:03:30;;;;;;;14.37;12.87;;;12.70;99.90;;;;;;6249027;28;20235;-72
2021/09/27 01:06:59;;;;;;;13.10;11.80;;;12.70;99.90;;;;;;6250886;28;20269;-73
2021/09/27 01:10:38;;;;;;;16.47;14.30;;;12.70;99.90;;;;;;6250583;28;20233;-72
2021/09/27 01:14:05;;;;;;;17.13;14.17;;;12.60;99.90;;;;;;6250495;28;20221;-73
2021/09/27 01:17:23;;;;;;;17.07;14.00;;;12.60;99.90;;;;;;6232750;28;20196;-73
2021/09/27 01:20:41;;;;;;;15.47;13.87;;;12.60;99.90;;;;;;6250808;28;20325;-73
2021/09/27 01:24:12;;;;;;;15.57;14.07;;;12.50;99.90;;;;;;6233086;28;20220;-73
2021/09/27 01:27:56;;;;;;;17.60;15.67;;;12.50;99.90;;;;;;6232397;28;20213;-73
2021/09/27 01:31:19;;;;;;;15.63;13.83;;;12.50;99.90;;;;;;6225850;28;20211;-72
2021/09/27 01:34:33;;;;;;;14.83;13.23;;;12.50;99.90;;;;;;6232423;28;20194;-72
2021/09/27 01:37:41;;;;;;;17.67;15.17;;;12.40;99.90;;;;;;6232709;28;20192;-73
2021/09/27 01:41:08;;;;;;;15.30;13.70;;;12.50;99.90;;;;;;6232219;28;20237;-74
2021/09/27 01:44:35;;;;;;;18.20;14.27;;;12.50;99.90;;;;;;6250132;28;20198;-73
2021/09/27 01:47:50;;;;;;;15.80;14.20;;;12.50;99.90;;;;;;6249716;28;20253;-73
2021/09/27 01:51:06;;;;;;;16.23;14.43;;;12.50;99.90;;;;;;6249613;28;20297;-72
2021/09/27 01:54:37;;;;;;;17.47;14.17;;;12.50;99.90;;;;;;6237667;28;20202;-73
2021/09/27 01:58:00;;;;;;;16.67;14.53;;;12.50;99.90;;;;;;6232013;28;20666;-73
2021/09/27 02:01:09;;;;;;;17.70;15.17;;;12.40;99.90;;;;;;6239452;28;20781;-73
2021/09/27 02:04:24;;;;;;;17.87;14.90;;;12.50;99.90;;;;;;6249510;28;20207;-72
2021/09/27 02:07:30;;;;;;;17.47;15.43;;;12.50;99.90;;;;;;6249641;28;20202;-72
2021/09/27 02:10:52;;;;;;;16.13;14.33;;;12.50;99.90;;;;;;6231437;28;20215;-73
2021/09/27 02:14:15;;;;;;;15.87;13.70;;;12.60;99.90;;;;;;6248018;28;20211;-73
2021/09/27 02:17:26;;;;;;;16.00;14.50;;;12.70;99.90;;;;;;6244572;28;20829;-73
2021/09/27 02:20:44;;;;;;;16.93;14.20;;;12.70;99.90;;;;;;6247638;28;20207;-73
2021/09/27 02:23:59;;;;;;;16.00;14.37;;;12.80;99.90;;;;;;6247619;28;20469;-73
2021/09/27 02:27:02;;;;;;;14.43;13.03;;;12.90;99.90;;;;;;6247744;28;20318;-73
2021/09/27 02:30:07;;;;;;;17.27;15.40;;;12.90;99.90;;;;;;6248821;28;20215;-72
2021/09/27 02:33:21;;;;;;;16.23;14.50;;;12.90;99.90;;;;;;6225690;28;20664;-72
2021/09/27 02:36:29;;;;;;;15.43;13.83;;;13.00;99.90;;;;;;6231255;28;20201;-73
2021/09/27 02:39:46;;;;;;;16.63;13.87;;;13.00;99.90;;;;;;6248559;28;20193;-73
2021/09/27 02:42:55;;;;;;;17.40;15.70;;;13.10;99.90;;;;;;6248605;28;20208;-74
2021/09/27 02:45:58;;;;;;;18.33;13.90;;;13.10;99.90;;;;;;6248335;28;20197;-73
2021/09/27 02:49:11;;;;;;;13.67;12.37;;;13.20;99.90;;;;;;6248360;28;20192;-72
2021/09/27 02:52:17;;;;;;;15.17;13.57;;;13.20;99.90;;;;;;6247096;28;20202;-72
2021/09/27 02:55:23;;;;;;;15.73;13.90;;;13.30;99.90;;;;;;6248161;28;20190;-72
2021/09/27 02:58:36;;;;;;;15.30;13.50;;;13.30;99.90;;;;;;6248179;28;20188;-72
2021/09/27 03:01:41;;;;;;;13.90;12.50;;;13.30;99.90;;;;;;6225331;28;20246;-73
2021/09/27 03:05:07;;;;;;;16.03;14.43;;;13.40;99.90;;;;;;6248550;28;20295;-73
2021/09/27 03:08:31;;;;;;;14.60;13.10;;;13.40;99.90;;;;;;6246725;28;20545;-73
2021/09/27 03:11:56;;;;;;;16.30;14.03;;;13.40;99.90;;;;;;6230646;28;20275;-72
2021/09/27 03:15:29;;;;;;;13.73;12.40;;;13.40;99.90;;;;;;6247827;28;20187;-74
2021/09/27 03:19:07;;;;;;;15.13;13.63;;;13.40;99.90;;;;;;6246536;28;20559;-73
2021/09/27 03:22:17;;;;;;;14.43;13.03;;;13.40;99.90;;;;;;6150344;28;20203;-73
2021/09/27 03:25:51;;;;;;;14.27;12.87;;;13.40;99.90;;;;;;6246035;28;20198;-73
2021/09/27 03:29:21;;;;;;;14.03;12.63;;;13.40;99.90;;;;;;6212923;28;20204;-73
2021/09/27 03:32:40;;;;;;;13.10;11.33;;;13.50;99.90;;;;;;6229373;28;20203;-73
2021/09/27 03:36:10;;;;;;;13.50;11.83;;;13.50;99.90;;;;;;6247282;28;20176;-73
2021/09/27 03:39:19;;;;;;;14.87;13.37;;;13.50;99.90;;;;;;6229362;28;20188;-73
2021/09/27 03:42:26;;;;;;;12.47;11.27;;;13.50;99.90;;;;;;6247306;28;20623;-74
2021/09/27 03:45:36;;;;;;;14.63;13.13;;;13.50;99.90;;;;;;6229376;28;20277;-73
2021/09/27 03:49:01;;;;;;;15.07;13.57;;;13.60;99.90;;;;;;6229520;28;20310;-73
2021/09/27 03:52:13;;;;;;;14.53;13.03;;;13.60;99.90;;;;;;6230149;28;20204;-73
2021/09/27 03:55:35;;;;;;;15.43;13.93;;;13.60;99.90;;;;;;6237775;28;20657;-73
2021/09/27 03:58:50;;;;;;;14.30;12.90;;;13.60;99.90;;;;;;6230950;28;20715;-72
2021/09/27 04:02:17;;;;;;;15.23;13.60;;;13.60;99.90;;;;;;6245595;28;20243;-73
2021/09/27 04:06:05;;;;;;;15.37;13.87;;;13.70;99.90;;;;;;6237975;28;20207;-72
2021/09/27 04:09:16;;;;;;;15.03;13.57;;;13.70;99.90;;;;;;6237341;28;20723;-72
2021/09/27 04:12:27;;;;;;;14.00;12.70;;;13.70;99.90;;;;;;6238827;28;20194;-73
2021/09/27 04:15:51;;;;;;;13.80;12.50;;;13.70;99.90;;;;;;6228482;28;20270;-74
2021/09/27 04:19:12;;;;;;;16.50;14.80;;;13.70;99.90;;;;;;6228589;28;20199;-73
2021/09/27 04:22:30;;;;;;;15.63;14.13;;;13.70;99.90;;;;;;6228395;28;20287;-72
2021/09/27 04:25:52;;;;;;;15.10;13.60;;;13.70;99.90;;;;;;6228269;28;20200;-74
2021/09/27 04:29:13;;;;;;;16.37;14.67;;;13.80;99.90;;;;;;6246215;28;20196;-73
2021/09/27 04:32:41;;;;;;;14.80;13.30;;;13.80;99.90;;;;;;6245963;28;20210;-72
2021/09/27 04:36:08;;;;;;;15.17;13.13;;;13.80;99.90;;;;;;6245978;28;20188;-73
2021/09/27 04:39:15;;;;;;;15.57;14.00;;;13.80;99.90;;;;;;6228181;28;20184;-74
2021/09/27 04:42:44;;;;;;;14.47;13.10;;;13.80;99.90;;;;;;6246119;28;20202;-72
2021/09/27 04:46:00;;;;;;;15.53;14.03;;;13.80;99.90;;;;;;6245601;28;20322;-73
2021/09/27 04:49:48;;;;;;;16.30;14.60;;;13.90;99.90;;;;;;6245846;28;20538;-73
2021/09/27 04:53:09;;;;;;;14.77;13.37;;;13.90;99.90;;;;;;6227927;28;20248;-73
2021/09/27 04:56:14;;;;;;;16.00;14.13;;;13.90;99.90;;;;;;6245954;28;20196;-73
2021/09/27 04:59:49;;;;;;;16.57;14.97;;;14.00;99.90;;;;;;6228390;28;20616;-73
2021/09/27 05:03:13;;;;;;;14.70;13.30;;;14.00;99.90;;;;;;6227983;28;20220;-74
2021/09/27 05:06:40;;;;;;;18.10;16.20;;;14.10;99.90;;;;;;6244617;28;20188;-74
2021/09/27 05:10:07;;;;;;;18.40;16.60;;;14.10;99.90;;;;;;6244325;28;20593;-73
2021/09/27 05:13:09;;;;;;;18.97;17.07;;;14.10;99.90;;;;;;6244636;28;20192;-73
2021/09/27 05:16:22;;;;;;;20.20;18.07;;;14.20;99.90;;;;;;6245439;28;20258;-73
2021/09/27 05:19:57;;;;;;;23.80;21.00;;;14.20;99.90;;;;;;6245551;28;20176;-73
2021/09/27 05:23:18;;;;;;;24.23;21.73;;;14.30;99.90;;;;;;6227680;28;20195;-73
2021/09/27 05:26:43;;;;;;;29.60;24.47;;;14.40;99.90;;;;;;6227746;28;20553;-73
2021/09/27 05:29:55;;;;;;;30.47;25.40;;;14.50;99.90;;;;;;6201715;28;20203;-73
2021/09/27 05:33:12;;;;;;;38.93;31.77;;;14.50;99.90;;;;;;6245112;28;20207;-73
2021/09/27 05:36:33;;;;;;;40.40;32.30;;;14.60;99.90;;;;;;6227388;28;20196;-73
2021/09/27 05:40:00;;;;;;;40.53;32.73;;;14.80;99.90;;;;;;6227283;28;20185;-73
2021/09/27 05:43:30;;;;;;;32.23;26.73;;;15.00;99.90;;;;;;6245059;28;20173;-74
2021/09/27 05:46:56;;;;;;;29.97;23.93;;;15.20;99.90;;;;;;6227418;28;20173;-74
2021/09/27 05:50:39;;;;;;;27.53;23.40;;;15.30;99.90;;;;;;6231375;28;20262;-73
2021/09/27 05:54:12;;;;;;;26.63;21.20;;;15.40;99.90;;;;;;6245993;28;20181;-73
2021/09/27 05:57:44;;;;;;;22.03;19.50;;;15.50;99.90;;;;;;6224980;28;20173;-74
2021/09/27 06:01:01;;;;;;;20.90;18.70;;;15.60;99.90;;;;;;6249157;28;20306;-74
2021/09/27 06:04:25;;;;;;;21.50;18.93;;;15.70;99.90;;;;;;6248278;28;20590;-73
2021/09/27 06:07:34;;;;;;;20.67;17.77;;;15.70;99.90;;;;;;6249109;28;20180;-74
2021/09/27 06:10:42;;;;;;;18.07;15.67;;;15.80;99.90;;;;;;6223517;28;20314;-74
2021/09/27 06:13:49;;;;;;;17.33;15.60;;;15.90;99.90;;;;;;6247329;28;20192;-73
2021/09/27 06:16:59;;;;;;;16.00;14.27;;;15.90;99.90;;;;;;6248746;28;20261;-73
2021/09/27 06:20:18;;;;;;;16.50;14.90;;;16.00;99.90;;;;;;6231267;28;20200;-74
2021/09/27 06:23:23;;;;;;;13.77;12.33;;;16.00;99.90;;;;;;6249094;28;20217;-75
2021/09/27 06:26:31;;;;;;;12.43;11.17;;;16.10;99.90;;;;;;6231195;28;20204;-73
2021/09/27 06:29:54;;;;;;;12.13;10.93;;;16.00;99.90;;;;;;6248586;28;20275;-73
2021/09/27 06:33:14;;;;;;;8.27;7.57;;;16.00;99.90;;;;;;6237029;28;20197;-74
2021/09/27 06:36:21;;;;;;;6.40;5.80;;;16.10;99.90;;;;;;6230718;28;20196;-73
2021/09/27 06:39:29;;;;;;;6.07;5.57;;;16.10;99.90;;;;;;6247088;28;20185;-74
2021/09/27 06:42:31;;;;;;;5.50;4.20;;;16.10;99.90;;;;;;6248274;28;20618;-73
2021/09/27 06:45:33;;;;;;;4.33;3.93;;;16.10;99.90;;;;;;6246879;28;20196;-73
2021/09/27 06:48:36;;;;;;;3.40;3.10;;;16.20;99.90;;;;;;6230657;28;20262;-74
2021/09/27 06:51:41;;;;;;;2.70;2.47;;;16.20;99.90;;;;;;6246509;28;20222;-73
2021/09/27 06:54:44;;;;;;;2.80;2.60;;;16.30;99.90;;;;;;6222222;28;20192;-74
2021/09/27 06:57:47;;;;;;;2.73;2.53;;;16.30;99.90;;;;;;6239867;28;20651;-74
2021/09/27 07:00:57;;;;;;;2.20;2.00;;;16.30;99.90;;;;;;6246753;28;20270;-74
2021/09/27 07:04:03;;;;;;;2.40;1.90;;;16.30;99.90;;;;;;6246567;28;20562;-74
2021/09/27 07:07:06;;;;;;;2.13;1.80;;;16.30;99.90;;;;;;6246360;28;20203;-74
2021/09/27 07:10:13;;;;;;;2.17;1.50;;;16.30;99.90;;;;;;6246435;28;20210;-73
2021/09/27 07:13:15;;;;;;;1.93;1.80;;;16.40;99.90;;;;;;6246497;28;20203;-73
2021/09/27 07:16:17;;;;;;;1.60;1.50;;;16.30;99.90;;;;;;6246540;28;20196;-74
2021/09/27 07:19:40;;;;;;;1.40;1.30;;;16.30;99.90;;;;;;6222964;28;20548;-74
2021/09/27 07:22:57;;;;;;;1.50;1.30;;;16.30;99.90;;;;;;6223034;28;20173;-73
2021/09/27 07:25:59;;;;;;;1.17;1.10;;;16.30;99.90;;;;;;6219772;28;20203;-75
2021/09/27 07:29:03;;;;;;;1.30;1.20;;;16.20;99.90;;;;;;6240226;28;20201;-74
2021/09/27 07:32:06;;;;;;;2.50;1.00;;;16.20;99.90;;;;;;6229942;28;20207;-73
2021/09/27 07:35:11;;;;;;;0.73;0.73;;;16.20;99.90;;;;;;6229436;28;20333;-74
2021/09/27 07:38:13;;;;;;;0.80;0.80;;;16.20;99.90;;;;;;6247201;28;20344;-74
2021/09/27 07:41:16;;;;;;;0.80;0.80;;;16.20;99.90;;;;;;6246968;28;20207;-73
2021/09/27 07:44:18;;;;;;;1.10;0.90;;;16.20;99.90;;;;;;6247003;28;20253;-74
2021/09/27 07:47:20;;;;;;;0.80;0.80;;;16.20;99.90;;;;;;6246787;28;20679;-74
2021/09/27 07:50:24;;;;;;;1.80;0.80;;;16.30;99.90;;;;;;6245188;28;20215;-74
2021/09/27 07:53:27;;;;;;;0.67;0.67;;;16.30;99.90;;;;;;6246500;28;20285;-73
2021/09/27 07:56:29;;;;;;;1.47;0.70;;;16.30;99.90;;;;;;6220889;28;20597;-73
2021/09/27 07:59:31;;;;;;;0.60;0.53;;;16.20;99.90;;;;;;6236488;28;20219;-73
2021/09/27 08:02:34;;;;;;;0.67;0.63;;;16.30;99.90;;;;;;6241087;28;20260;-74
2021/09/27 08:05:38;;;;;;;1.50;0.80;;;16.30;99.90;;;;;;6245257;28;20211;-74
2021/09/27 08:08:41;;;;;;;2.00;1.00;;;16.30;99.90;;;;;;6245213;28;20193;-74
2021/09/27 08:11:43;;;;;;;0.70;0.70;;;16.40;99.90;;;;;;6228150;28;20212;-74
2021/09/27 08:14:46;;;;;;;2.20;1.07;;;16.50;99.90;;;;;;6246236;28;20330;-74
2021/09/27 08:17:51;;;;;;;0.80;0.80;;;16.50;99.90;;;;;;6211931;28;20234;-74
2021/09/27 08:21:03;;;;;;;1.30;0.90;;;16.50;99.90;;;;;;6220154;28;20572;-74
2021/09/27 08:24:06;;;;;;;1.67;1.00;;;16.60;99.90;;;;;;6240664;28;20196;-74
2021/09/27 08:27:08;;;;;;;1.37;0.97;;;16.60;99.90;;;;;;6244741;28;20196;-73
2021/09/27 08:30:16;;;;;;;1.03;1.00;;;16.60;99.90;;;;;;6229560;28;20582;-75
2021/09/27 08:33:19;;;;;;;1.03;0.93;;;16.60;99.90;;;;;;6244666;28;20188;-74
2021/09/27 08:36:24;;;;;;;1.20;1.10;;;16.70;99.90;;;;;;6227832;28;20204;-75
2021/09/27 08:39:26;;;;;;;0.90;0.90;;;16.70;99.90;;;;;;6244383;28;20627;-75
2021/09/27 08:42:36;;;;;;;1.73;1.20;;;16.70;99.90;;;;;;6245540;28;20195;-74
2021/09/27 08:45:43;;;;;;;1.40;1.30;;;16.70;99.90;;;;;;6244434;28;20283;-75
2021/09/27 08:49:02;;;;;;;1.40;1.30;;;16.80;99.90;;;;;;6244114;28;20200;-74
2021/09/27 08:52:07;;;;;;;1.73;1.60;;;16.90;99.90;;;;;;6245769;28;20210;-74
2021/09/27 08:55:12;;;;;;;2.43;1.70;;;16.90;99.90;;;;;;6219907;28;20355;-75
2021/09/27 08:58:48;;;;;;;2.60;1.80;;;17.00;99.90;;;;;;6237665;28;20199;-74
2021/09/27 09:02:03;;;;;;;1.87;1.77;;;17.10;99.90;;;;;;6227484;28;20311;-74
2021/09/27 09:05:24;;;;;;;2.20;2.00;;;17.10;99.90;;;;;;6245269;28;20196;-75
2021/09/27 09:08:44;;;;;;;2.50;2.30;;;17.10;99.90;;;;;;6244249;28;20191;-75
2021/09/27 09:12:01;;;;;;;2.50;2.30;;;17.00;99.90;;;;;;6243834;28;20220;-75
2021/09/27 09:15:12;;;;;;;2.47;2.27;;;17.00;99.90;;;;;;6244112;28;20652;-74
2021/09/27 09:18:21;;;;;;;2.67;2.00;;;17.00;99.90;;;;;;6245088;28;20575;-74
2021/09/27 09:21:37;;;;;;;2.40;2.20;;;17.00;99.90;;;;;;6243990;28;20605;-74
2021/09/27 09:24:41;;;;;;;2.20;2.00;;;17.00;99.90;;;;;;6247835;28;20196;-74
2021/09/27 09:27:43;;;;;;;2.47;2.27;;;17.10;99.90;;;;;;6249812;28;20184;-75
2021/09/27 09:30:50;;;;;;;2.17;1.90;;;17.10;99.90;;;;;;6249819;28;20216;-74
2021/09/27 09:34:17;;;;;;;2.50;2.30;;;17.10;99.90;;;;;;6248620;28;20206;-74
2021/09/27 09:37:44;;;;;;;2.33;2.10;;;17.10;99.90;;;;;;6239606;28;20200;-74
2021/09/27 09:40:53;;;;;;;3.10;2.80;;;17.00;99.90;;;;;;6248105;28;20192;-74
2021/09/27 09:44:26;;;;;;;2.63;2.13;;;16.90;99.90;;;;;;6248526;28;20196;-74
2021/09/27 09:47:30;;;;;;;2.77;2.57;;;16.80;99.90;;;;;;6249752;28;20405;-74
2021/09/27 09:50:32;;;;;;;3.40;2.80;;;16.80;99.90;;;;;;6240008;28;20284;-76
2021/09/27 09:53:36;;;;;;;3.40;3.10;;;16.70;99.90;;;;;;6243721;28;20270;-74
2021/09/27 09:56:42;;;;;;;3.50;3.20;;;16.60;99.90;;;;;;6248316;28;20185;-75
2021/09/27 10:00:10;;;;;;;3.90;3.60;;;16.60;99.90;;;;;;6249937;28;20220;-75
2021/09/27 10:03:29;;;;;;;3.27;2.97;;;16.60;99.90;;;;;;6248963;28;20227;-73
2021/09/27 10:06:48;;;;;;;3.93;3.37;;;16.50;99.90;;;;;;6231628;28;20193;-75
2021/09/27 10:10:04;;;;;;;3.80;3.50;;;16.50;99.90;;;;;;6247992;28;20224;-75
2021/09/27 10:13:39;;;;;;;3.43;3.13;;;16.50;99.90;;;;;;6247759;28;20208;-73
2021/09/27 10:16:50;;;;;;;3.90;3.50;;;16.40;99.90;;;;;;6231373;28;20193;-74
2021/09/27 10:19:55;;;;;;;3.93;3.00;;;16.40;99.90;;;;;;6248619;28;20235;-74
2021/09/27 10:23:02;;;;;;;4.00;3.10;;;16.40;99.90;;;;;;6247578;28;20701;-74
2021/09/27 10:26:28;;;;;;;3.80;3.50;;;16.40;99.90;;;;;;6247080;28;20216;-75
2021/09/27 10:29:32;;;;;;;3.50;3.20;;;16.50;99.90;;;;;;6248550;28;20200;-76
2021/09/27 10:32:50;;;;;;;3.33;3.03;;;16.50;99.90;;;;;;6246828;28;20236;-75
2021/09/27 10:35:58;;;;;;;2.70;2.50;;;16.50;99.90;;;;;;6229703;28;20188;-73
2021/09/27 10:39:00;;;;;;;3.37;3.07;;;16.40;99.90;;;;;;6246892;28;20204;-74
2021/09/27 10:42:09;;;;;;;3.03;2.70;;;16.40;99.90;;;;;;6230587;28;20648;-74
2021/09/27 10:45:14;;;;;;;2.87;2.67;;;16.40;99.90;;;;;;6246992;28;20198;-74
2021/09/27 10:48:20;;;;;;;2.60;2.40;;;16.40;99.90;;;;;;6247976;28;20571;-74
2021/09/27 10:51:30;;;;;;;2.87;2.67;;;16.50;99.90;;;;;;6246891;28;20326;-74
2021/09/27 10:54:57;;;;;;;2.87;2.53;;;16.50;99.90;;;;;;6222167;28;20746;-75
2021/09/27 10:58:03;;;;;;;2.47;2.07;;;16.60;99.90;;;;;;6207612;28;20201;-74
2021/09/27 11:01:09;;;;;;;2.87;2.63;;;16.60;99.90;;;;;;6244676;28;20319;-75
2021/09/27 11:04:21;;;;;;;3.30;2.80;;;16.70;99.90;;;;;;6246634;28;20191;-74
2021/09/27 11:07:46;;;;;;;2.70;2.50;;;16.80;99.90;;;;;;6247979;28;20663;-75
2021/09/27 11:11:16;;;;;;;2.77;2.57;;;16.80;99.90;;;;;;6229725;28;20794;-76
2021/09/27 11:14:37;;;;;;;3.13;2.83;;;16.90;99.90;;;;;;6246359;28;20184;-76
2021/09/27 11:18:06;;;;;;;3.23;2.67;;;16.90;99.90;;;;;;6229866;28;20221;-74
2021/09/27 11:21:41;;;;;;;3.57;2.80;;;17.00;99.90;;;;;;6229555;28;20558;-74
2021/09/27 11:24:43;;;;;;;2.60;2.40;;;17.00;99.90;;;;;;6245912;28;20554;-74
2021/09/27 11:28:03;;;;;;;3.33;2.80;;;17.00;99.90;;;;;;6245804;28;20192;-74
2021/09/27 11:31:16;;;;;;;3.13;2.83;;;17.10;99.90;;;;;;6259398;28;20196;-75
2021/09/27 11:34:29;;;;;;;3.23;2.60;;;17.10;99.90;;;;;;6229209;28;20184;-74
2021/09/27 11:37:42;;;;;;;3.17;2.87;;;17.10;99.90;;;;;;6247305;28;20202;-74
2021/09/27 11:40:51;;;;;;;3.03;2.73;;;17.20;99.90;;;;;;6246691;28;20195;-74
2021/09/27 11:44:07;;;;;;;3.07;2.83;;;17.20;99.90;;;;;;6245658;28;20573;-74
2021/09/27 11:47:14;;;;;;;3.43;2.70;;;17.30;99.90;;;;;;6228653;28;20730;-74
2021/09/27 11:50:51;;;;;;;2.77;2.57;;;17.30;99.90;;;;;;6245990;28;20674;-74
2021/09/27 11:54:15;;;;;;;2.10;1.90;;;17.40;99.90;;;;;;6225760;28;20251;-74
2021/09/27 11:57:32;;;;;;;2.60;2.20;;;17.40;99.90;;;;;;6245751;28;20279;-74
2021/09/27 12:01:04;;;;;;;3.37;2.67;;;17.50;99.90;;;;;;6248151;28;20661;-74
2021/09/27 12:04:35;;;;;;;4.47;3.20;;;17.50;99.90;;;;;;6228193;28;20207;-73
2021/09/27 12:07:51;;;;;;;3.67;2.60;;;17.50;99.90;;;;;;6246499;28;20275;-74
2021/09/27 12:11:09;;;;;;;2.50;2.30;;;17.50;99.90;;;;;;6246050;28;20206;-73
2021/09/27 12:14:25;;;;;;;3.10;2.50;;;17.50;99.90;;;;;;6246123;28;20195;-74
2021/09/27 12:17:33;;;;;;;2.80;2.60;;;17.60;99.90;;;;;;6231633;28;20736;-74
2021/09/27 12:20:39;;;;;;;2.90;2.60;;;17.70;99.90;;;;;;6244912;28;20198;-74
2021/09/27 12:23:47;;;;;;;2.53;2.33;;;17.70;99.90;;;;;;6244929;28;20698;-74
2021/09/27 12:27:10;;;;;;;3.10;2.90;;;17.80;99.90;;;;;;6246145;28;20287;-73
2021/09/27 12:30:15;;;;;;;3.87;2.87;;;17.80;99.90;;;;;;6245657;28;20200;-73
2021/09/27 12:33:25;;;;;;;4.10;2.90;;;17.80;99.90;;;;;;6227997;28;20212;-74
2021/09/27 12:36:27;;;;;;;3.03;2.70;;;17.80;99.90;;;;;;6245881;28;20517;-74
2021/09/27 12:39:30;;;;;;;3.90;2.70;;;17.70;99.90;;;;;;6245375;28;20582;-74
2021/09/27 12:42:41;;;;;;;2.67;2.47;;;17.70;99.90;;;;;;6244407;28;20188;-73
2021/09/27 12:45:48;;;;;;;2.50;2.30;;;17.70;99.90;;;;;;6245499;28;20188;-73
2021/09/27 12:48:58;;;;;;;2.73;2.50;;;17.60;99.90;;;;;;6244364;28;20211;-73
2021/09/27 12:52:02;;;;;;;3.20;2.90;;;17.60;99.90;;;;;;6244348;28;20212;-75
2021/09/27 12:55:10;;;;;;;3.10;2.67;;;17.60;99.90;;;;;;6219743;28;20189;-73
2021/09/27 12:58:39;;;;;;;2.60;2.40;;;17.60;99.90;;;;;;6225335;28;20683;-74
2021/09/27 13:01:48;;;;;;;3.37;2.87;;;17.70;99.90;;;;;;6225932;28;20227;-74
2021/09/27 13:04:59;;;;;;;3.30;2.27;;;17.70;99.90;;;;;;6245299;28;20251;-74
2021/09/27 13:08:02;;;;;;;2.40;2.20;;;17.70;99.90;;;;;;6245224;28;20258;-74
2021/09/27 13:11:05;;;;;;;3.50;2.53;;;17.70;99.90;;;;;;6245687;28;20556;-74
2021/09/27 13:14:17;;;;;;;2.43;2.23;;;17.70;99.90;;;;;;6243942;28;20318;-74
2021/09/27 13:17:23;;;;;;;2.53;2.33;;;17.70;99.90;;;;;;6243839;28;20192;-74
2021/09/27 13:20:46;;;;;;;2.63;2.43;;;17.70;99.90;;;;;;6244053;28;20620;-74
2021/09/27 13:24:13;;;;;;;2.47;2.27;;;17.70;99.90;;;;;;6243907;28;20294;-74
2021/09/27 13:27:23;;;;;;;2.40;2.20;;;17.70;99.90;;;;;;6243980;28;20312;-75
2021/09/27 13:30:30;;;;;;;2.30;2.10;;;17.70;99.90;;;;;;6243618;28;20201;-74
2021/09/27 13:33:37;;;;;;;2.47;2.27;;;17.70;99.90;;;;;;6245030;28;20204;-74
2021/09/27 13:36:45;;;;;;;2.83;2.63;;;17.70;99.90;;;;;;6243305;28;20569;-75
2021/09/27 13:39:49;;;;;;;3.47;3.13;;;17.60;99.90;;;;;;6243896;28;20214;-74
2021/09/27 13:43:05;;;;;;;3.50;3.20;;;17.60;99.90;;;;;;6245098;28;20188;-74
2021/09/27 13:46:11;;;;;;;3.90;3.60;;;17.60;99.90;;;;;;6243547;28;20200;-75
2021/09/27 13:49:14;;;;;;;3.93;3.53;;;17.60;99.90;;;;;;6227221;28;20200;-74
2021/09/27 13:52:26;;;;;;;3.67;3.37;;;17.60;99.90;;;;;;6229464;28;20349;-74
2021/09/27 13:55:30;;;;;;;4.27;3.90;;;17.60;99.90;;;;;;6219172;28;20695;-73
2021/09/27 13:58:32;;;;;;;3.80;3.50;;;17.70;99.90;;;;;;6238966;28;20193;-74
2021/09/27 14:01:35;;;;;;;4.20;3.80;;;17.70;99.90;;;;;;6218163;28;20231;-74
2021/09/27 14:04:38;;;;;;;4.17;3.80;;;17.70;99.90;;;;;;6244827;28;20560;-74
2021/09/27 14:07:40;;;;;;;4.60;3.80;;;17.70;99.90;;;;;;6243025;28;20192;-74
2021/09/27 14:10:44;;;;;;;4.47;4.07;;;17.70;99.90;;;;;;6246459;28;20192;-74
2021/09/27 14:13:47;;;;;;;3.87;3.47;;;17.60;99.90;;;;;;6248031;28;20215;-74
2021/09/27 14:16:49;;;;;;;3.83;3.47;;;17.60;99.90;;;;;;6247630;28;20610;-74
2021/09/27 14:19:51;;;;;;;4.67;4.27;;;17.60;99.90;;;;;;6247908;28;20357;-73
2021/09/27 14:22:54;;;;;;;4.20;3.80;;;17.60;99.90;;;;;;6248615;28;20294;-75
2021/09/27 14:25:56;;;;;;;4.60;4.17;;;17.60;99.90;;;;;;6248626;28;20711;-74
2021/09/27 14:28:58;;;;;;;4.40;3.97;;;17.50;99.90;;;;;;6248476;28;20192;-74
2021/09/27 14:32:01;;;;;;;4.83;4.40;;;17.50;99.90;;;;;;6248540;28;20210;-74
2021/09/27 14:35:04;;;;;;;4.33;3.93;;;17.50;99.90;;;;;;6247163;28;20188;-76
2021/09/27 14:38:09;;;;;;;4.77;4.27;;;17.40;99.90;;;;;;6248380;28;20195;-74
2021/09/27 14:41:15;;;;;;;4.43;4.03;;;17.40;99.90;;;;;;6248403;28;20203;-74
2021/09/27 14:44:17;;;;;;;4.10;3.70;;;17.50;99.90;;;;;;6246797;28;20652;-74
2021/09/27 14:47:19;;;;;;;4.10;3.80;;;17.50;99.90;;;;;;6248757;28;20258;-75
2021/09/27 14:50:28;;;;;;;4.10;3.80;;;17.50;99.90;;;;;;6248046;28;20684;-73
2021/09/27 14:53:31;;;;;;;4.53;4.07;;;17.50;99.90;;;;;;6247865;28;20235;-74
2021/09/27 14:56:33;;;;;;;4.70;3.70;;;17.60;99.90;;;;;;6246923;28;20719;-74
2021/09/27 14:59:36;;;;;;;4.30;3.77;;;17.60;99.90;;;;;;6247724;28;20219;-74
2021/09/27 15:02:38;;;;;;;3.97;3.63;;;17.70;99.90;;;;;;6247790;28;20358;-74
2021/09/27 15:05:41;;;;;;;4.40;3.90;;;17.70;99.90;;;;;;6247817;28;20198;-74
2021/09/27 15:08:44;;;;;;;4.20;3.80;;;17.80;99.90;;;;;;6246742;28;20184;-75
2021/09/27 15:11:46;;;;;;;4.03;3.63;;;17.80;99.90;;;;;;6246559;28;20783;-74
2021/09/27 15:14:48;;;;;;;3.90;3.60;;;17.90;99.90;;;;;;6205718;28;20201;-74
2021/09/27 15:17:51;;;;;;;3.73;3.43;;;18.00;99.90;;;;;;6244440;28;20188;-74
2021/09/27 15:20:56;;;;;;;4.30;3.90;;;18.10;99.90;;;;;;6204415;28;20220;-73
2021/09/27 15:23:59;;;;;;;4.27;3.87;;;18.10;99.90;;;;;;6237860;28;20224;-75
2021/09/27 15:27:02;;;;;;;4.73;3.97;;;18.10;99.90;;;;;;6230197;28;20271;-74
2021/09/27 15:30:05;;;;;;;3.60;3.30;;;18.10;99.90;;;;;;6234315;28;20710;-74
2021/09/27 15:33:08;;;;;;;4.27;3.87;;;18.10;99.90;;;;;;6245941;28;20279;-74
2021/09/27 15:36:14;;;;;;;3.37;3.13;;;18.20;99.90;;;;;;6246053;28;20509;-75
2021/09/27 15:39:18;;;;;;;3.80;3.50;;;18.20;99.90;;;;;;6247487;28;20203;-73
2021/09/27 15:42:22;;;;;;;4.00;3.70;;;18.20;99.90;;;;;;6245727;28;20199;-74
2021/09/27 15:45:24;;;;;;;4.27;3.90;;;18.20;99.90;;;;;;6246736;28;20203;-74
2021/09/27 15:48:27;;;;;;;4.40;4.00;;;18.10;99.90;;;;;;6246825;28;20329;-74
2021/09/27 15:51:29;;;;;;;4.30;3.90;;;18.10;99.90;;;;;;6224958;28;20192;-74
2021/09/27 15:54:32;;;;;;;4.27;3.87;;;18.10;99.90;;;;;;6246601;28;20266;-74
2021/09/27 15:57:34;;;;;;;4.50;4.10;;;18.00;99.90;;;;;;6244901;28;20192;-74
2021/09/27 16:00:40;;;;;;;4.97;4.47;;;18.00;99.90;;;;;;6238729;28;20670;-74
2021/09/27 16:03:42;;;;;;;5.53;3.93;;;18.00;99.90;;;;;;6246581;28;20204;-75
2021/09/27 16:06:44;;;;;;;4.50;4.10;;;18.00;99.90;;;;;;6228624;28;20540;-74
2021/09/27 16:09:47;;;;;;;5.50;4.23;;;18.00;99.90;;;;;;6246762;28;20268;-74
2021/09/27 16:12:49;;;;;;;5.07;4.57;;;18.00;99.90;;;;;;6245310;28;20207;-74
2021/09/27 16:15:51;;;;;;;5.13;4.50;;;17.90;99.90;;;;;;6245038;28;20200;-73
2021/09/27 16:18:54;;;;;;;5.70;4.90;;;17.90;99.90;;;;;;6220448;28;20301;-73
2021/09/27 16:21:56;;;;;;;5.93;4.10;;;17.90;99.90;;;;;;6229396;28;20682;-74
2021/09/27 16:24:58;;;;;;;4.20;3.80;;;17.90;99.90;;;;;;6244757;28;20188;-74
2021/09/27 16:28:03;;;;;;;5.13;4.63;;;17.80;99.90;;;;;;6228127;28;20194;-73
2021/09/27 16:31:05;;;;;;;4.33;3.93;;;17.70;99.90;;;;;;6245801;28;20763;-74